Time,TemperatureF,DewpointF,PressureIn,WindDirection,WindDirectionDegrees,WindSpeedMPH,WindSpeedGustMPH,Humidity,HourlyPrecipIn,Conditions,Clouds,dailyrainin,SolarRadiationWatts/m^2,SoftwareType,DateUTC
2013-02-03 00:00:00,34.0,29.4,30.31,SE,146,3.0,0.0,83,0.00,,,-99.99,0,WeatherHawk,2013-02-03 08:00:00,
2013-02-03 00:05:00,34.3,28.5,30.31,SSE,155,0.0,0.0,79,0.00,,,0.00,1,WeatherHawk,2013-02-03 08:05:00,
2013-02-03 00:10:00,35.0,28.8,30.31,SSE,155,0.0,0.0,78,0.00,,,0.00,0,WeatherHawk,2013-02-03 08:10:00,
2013-02-03 00:15:00,34.1,28.2,30.31,SSE,155,0.0,0.0,79,0.00,,,0.00,0,WeatherHawk,2013-02-03 08:15:00,
2013-02-03 00:20:00,33.7,28.5,30.31,SSE,155,0.0,0.0,81,0.00,,,0.00,0,WeatherHawk,2013-02-03 08:20:00,
2013-02-03 00:25:00,33.1,27.9,30.31,SSE,155,0.0,0.0,81,0.00,,,0.00,0,WeatherHawk,2013-02-03 08:25:00,
2013-02-03 00:30:00,33.5,28.9,30.31,SSE,155,0.0,0.0,83,0.00,,,0.00,0,WeatherHawk,2013-02-03 08:30:00,
2013-02-03 00:35:00,33.8,28.3,30.31,South,180,1.0,0.0,80,0.00,,,0.00,0,WeatherHawk,2013-02-03 08:35:00,
2013-02-03 00:40:00,34.6,28.7,30.31,South,171,0.0,0.0,79,0.00,,,0.00,0,WeatherHawk,2013-02-03 08:40:00,
2013-02-03 00:46:00,33.6,27.5,30.31,SE,137,0.0,0.0,78,0.00,,,0.00,0,WeatherHawk,2013-02-03 08:46:00,
2013-02-03 00:51:00,32.3,27.1,30.31,NW,308,0.0,0.0,81,0.00,,,0.00,1,WeatherHawk,2013-02-03 08:51:00,
2013-02-03 00:56:00,32.5,28.8,30.31,NW,308,0.0,0.0,86,0.00,,,0.00,0,WeatherHawk,2013-02-03 08:56:00,
2013-02-03 01:02:00,34.1,30.1,30.31,SE,138,1.0,0.0,85,0.00,,,0.00,0,WeatherHawk,2013-02-03 09:02:00,
2013-02-03 01:07:00,34.4,29.8,30.31,ESE,113,0.0,0.0,83,0.00,,,0.00,0,WeatherHawk,2013-02-03 09:07:00,
2013-02-03 01:12:00,34.0,29.7,30.31,ESE,113,0.0,0.0,84,0.00,,,0.00,0,WeatherHawk,2013-02-03 09:12:00,
2013-02-03 01:17:00,33.0,28.7,30.31,WNW,294,0.0,0.0,84,0.00,,,0.00,0,WeatherHawk,2013-02-03 09:17:00,
2013-02-03 01:22:00,32.1,28.4,30.31,SSE,163,2.0,0.0,86,0.00,,,0.00,0,WeatherHawk,2013-02-03 09:22:00,
2013-02-03 01:28:00,33.9,29.6,30.31,SSW,200,2.0,0.0,84,0.00,,,0.00,0,WeatherHawk,2013-02-03 09:28:00,
2013-02-03 01:33:00,34.4,29.4,30.31,WSW,246,0.0,0.0,82,0.00,,,0.00,0,WeatherHawk,2013-02-03 09:33:00,
2013-02-03 01:38:00,32.4,27.5,30.31,WSW,247,0.0,0.0,82,0.00,,,0.00,0,WeatherHawk,2013-02-03 09:38:00,
2013-02-03 01:43:00,31.8,27.8,30.31,WSW,247,0.0,0.0,85,0.00,,,0.00,0,WeatherHawk,2013-02-03 09:43:00,
2013-02-03 01:48:00,31.3,28.2,30.31,WSW,247,0.0,0.0,88,0.00,,,0.00,0,WeatherHawk,2013-02-03 09:48:00,
2013-02-03 01:54:00,31.6,29.8,30.32,SSE,162,3.0,0.0,93,0.00,,,0.00,0,WeatherHawk,2013-02-03 09:54:00,
2013-02-03 01:59:00,31.8,30.0,30.31,SE,146,0.0,0.0,93,0.00,,,0.00,0,WeatherHawk,2013-02-03 09:59:00,
2013-02-03 02:04:00,32.6,29.4,30.31,SE,134,0.0,0.0,88,0.00,,,0.00,0,WeatherHawk,2013-02-03 10:04:00,
2013-02-03 02:09:00,31.1,27.4,30.32,SSW,206,0.0,0.0,86,0.00,,,0.00,0,WeatherHawk,2013-02-03 10:09:00,
2013-02-03 02:14:00,31.6,28.8,30.31,SSE,168,2.0,-999.0,89,0.00,,,0.00,0,WeatherHawk,2013-02-03 10:14:00,
2013-02-03 02:19:00,33.2,30.1,30.32,SSW,194,0.0,0.0,88,0.00,,,0.00,0,WeatherHawk,2013-02-03 10:19:00,
2013-02-03 02:24:00,32.0,27.4,30.31,WSW,250,0.0,0.0,83,0.00,,,0.00,0,WeatherHawk,2013-02-03 10:24:00,
2013-02-03 02:29:00,32.4,29.0,30.31,SE,143,1.0,0.0,87,0.00,,,0.00,0,WeatherHawk,2013-02-03 10:29:00,
2013-02-03 02:35:00,32.9,29.2,30.30,SE,125,0.0,0.0,86,0.00,,,0.00,0,WeatherHawk,2013-02-03 10:35:00,
2013-02-03 02:40:00,36.6,27.0,30.30,WSW,240,4.0,0.0,68,0.00,,,0.00,0,WeatherHawk,2013-02-03 10:40:00,
2013-02-03 02:45:00,31.0,25.2,30.30,West,272,0.0,0.0,79,0.00,,,0.00,0,WeatherHawk,2013-02-03 10:45:00,
2013-02-03 02:50:00,30.6,26.6,30.30,SSE,163,3.0,0.0,85,0.00,,,0.00,0,WeatherHawk,2013-02-03 10:50:00,
2013-02-03 02:55:00,32.3,28.9,30.30,SSW,204,0.0,0.0,87,0.00,,,0.00,1,WeatherHawk,2013-02-03 10:55:00,
2013-02-03 03:00:00,31.7,27.7,30.31,South,172,3.0,0.0,85,0.00,,,0.00,1,WeatherHawk,2013-02-03 11:00:00,
2013-02-03 03:05:00,31.5,27.8,30.31,SSE,156,3.0,0.0,86,0.00,,,0.00,0,WeatherHawk,2013-02-03 11:05:00,
2013-02-03 03:11:00,32.5,28.2,30.31,South,189,4.0,0.0,84,0.00,,,0.00,0,WeatherHawk,2013-02-03 11:11:00,
2013-02-03 03:16:00,33.2,28.0,30.31,SSW,207,0.0,0.0,81,0.00,,,0.00,0,WeatherHawk,2013-02-03 11:16:00,
2013-02-03 03:22:00,32.5,27.6,30.30,SW,224,2.0,0.0,82,0.00,,,0.00,0,WeatherHawk,2013-02-03 11:22:00,
2013-02-03 03:27:00,33.0,28.1,30.30,SSE,152,2.0,0.0,82,0.00,,,0.00,0,WeatherHawk,2013-02-03 11:27:00,
2013-02-03 03:32:00,33.2,28.9,30.29,SSE,152,0.0,0.0,84,0.00,,,0.00,0,WeatherHawk,2013-02-03 11:32:00,
2013-02-03 03:37:00,31.7,27.4,30.29,SSE,152,0.0,0.0,84,0.00,,,0.00,0,WeatherHawk,2013-02-03 11:37:00,
2013-02-03 03:43:00,30.3,26.6,30.29,NNW,343,0.0,0.0,86,0.00,,,0.00,0,WeatherHawk,2013-02-03 11:43:00,
2013-02-03 03:48:00,29.9,27.6,30.30,SE,131,1.0,0.0,91,0.00,,,0.00,0,WeatherHawk,2013-02-03 11:48:00,
2013-02-03 03:54:00,31.5,30.0,30.30,SSW,192,2.0,0.0,94,0.00,,,0.00,1,WeatherHawk,2013-02-03 11:54:00,
2013-02-03 03:59:00,31.1,29.1,30.29,SSE,164,0.0,0.0,92,0.00,,,0.00,0,WeatherHawk,2013-02-03 11:59:00,
2013-02-03 04:04:00,30.8,28.2,30.29,NW,326,0.0,0.0,90,0.00,,,0.00,1,WeatherHawk,2013-02-03 12:04:00,
2013-02-03 04:09:00,34.6,32.5,30.29,South,170,3.0,0.0,92,0.00,,,0.00,0,WeatherHawk,2013-02-03 12:09:00,
2013-02-03 04:15:00,36.9,28.4,30.28,WSW,254,3.0,-999.0,71,0.00,,,0.00,0,WeatherHawk,2013-02-03 12:15:00,
2013-02-03 04:20:00,35.0,28.2,30.28,SSW,210,3.0,0.0,76,0.00,,,0.00,1,WeatherHawk,2013-02-03 12:20:00,
2013-02-03 04:25:00,29.8,24.4,30.29,SSE,163,0.0,-999.0,80,0.00,,,0.00,0,WeatherHawk,2013-02-03 12:25:00,
2013-02-03 04:31:00,31.0,25.9,30.29,NW,304,4.0,0.0,81,0.00,,,0.00,1,WeatherHawk,2013-02-03 12:31:00,
2013-02-03 04:35:00,30.6,26.6,30.28,SSE,165,2.0,0.0,85,0.00,,,0.00,0,WeatherHawk,2013-02-03 12:35:00,
2013-02-03 04:41:00,30.2,24.8,30.29,WNW,282,3.0,0.0,80,0.00,,,0.00,1,WeatherHawk,2013-02-03 12:41:00,
2013-02-03 04:47:00,35.3,32.9,30.28,SW,216,5.0,0.0,91,0.00,,,0.00,0,WeatherHawk,2013-02-03 12:47:00,
2013-02-03 04:52:00,31.6,26.2,30.28,NW,305,3.0,0.0,80,0.00,,,0.00,0,WeatherHawk,2013-02-03 12:52:00,
2013-02-03 04:57:00,31.6,26.8,30.28,NW,318,2.0,0.0,82,0.00,,,0.00,0,WeatherHawk,2013-02-03 12:57:00,
2013-02-03 05:02:00,33.6,28.1,30.28,SSW,207,2.0,0.0,80,0.00,,,0.00,0,WeatherHawk,2013-02-03 13:02:00,
2013-02-03 05:07:00,34.9,28.8,30.28,SSW,193,3.0,0.0,78,0.00,,,0.00,1,WeatherHawk,2013-02-03 13:07:00,
2013-02-03 05:13:00,36.6,26.7,30.27,SSE,161,7.0,0.0,67,0.00,,,0.00,1,WeatherHawk,2013-02-03 13:13:00,
2013-02-03 05:18:00,35.9,25.7,30.27,SSE,155,5.0,0.0,66,0.00,,,0.00,0,WeatherHawk,2013-02-03 13:18:00,
2013-02-03 05:24:00,36.7,24.1,30.26,SSW,212,5.0,0.0,60,0.00,,,0.00,1,WeatherHawk,2013-02-03 13:24:00,
2013-02-03 05:29:00,35.5,24.9,30.27,West,276,5.0,0.0,65,0.00,,,0.00,0,WeatherHawk,2013-02-03 13:29:00,
2013-02-03 05:34:00,34.8,26.4,30.27,South,188,5.0,0.0,71,0.00,,,0.00,0,WeatherHawk,2013-02-03 13:34:00,
2013-02-03 05:39:00,32.1,23.1,30.27,SSE,154,3.0,0.0,69,0.00,,,0.00,0,WeatherHawk,2013-02-03 13:39:00,
2013-02-03 05:44:00,29.4,23.4,30.27,SSW,196,3.0,0.0,78,0.00,,,0.00,1,WeatherHawk,2013-02-03 13:44:00,
2013-02-03 05:49:00,35.5,29.4,30.27,SSW,194,5.0,0.0,78,0.00,,,0.00,0,WeatherHawk,2013-02-03 13:49:00,
2013-02-03 05:54:00,35.8,26.3,30.27,SW,229,7.0,0.0,68,0.00,,,0.00,0,WeatherHawk,2013-02-03 13:54:00,
2013-02-03 06:00:00,34.3,24.8,30.27,SSW,194,5.0,0.0,68,0.00,,,0.00,0,WeatherHawk,2013-02-03 14:00:00,
2013-02-03 06:05:00,32.5,23.8,30.27,WSW,251,0.0,0.0,70,0.00,,,0.00,1,WeatherHawk,2013-02-03 14:05:00,
2013-02-03 06:10:00,31.9,23.6,30.27,West,263,0.0,0.0,71,0.00,,,0.00,0,WeatherHawk,2013-02-03 14:10:00,
2013-02-03 06:15:00,34.6,25.5,30.27,SSW,198,5.0,0.0,69,0.00,,,0.00,0,WeatherHawk,2013-02-03 14:15:00,
2013-02-03 06:21:00,35.7,24.7,30.27,SSE,163,6.0,0.0,64,0.00,,,0.00,1,WeatherHawk,2013-02-03 14:21:00,
2013-02-03 06:26:00,30.9,20.2,30.27,West,259,2.0,0.0,64,0.00,,,0.00,1,WeatherHawk,2013-02-03 14:26:00,
2013-02-03 06:31:00,30.5,24.1,30.28,SE,146,1.0,0.0,77,0.00,,,0.00,1,WeatherHawk,2013-02-03 14:31:00,
2013-02-03 06:36:00,31.2,24.6,30.28,SW,220,0.0,0.0,76,0.00,,,0.00,0,WeatherHawk,2013-02-03 14:36:00,
2013-02-03 06:41:00,30.2,24.8,30.28,SW,217,0.0,0.0,80,0.00,,,0.00,0,WeatherHawk,2013-02-03 14:41:00,
2013-02-03 06:47:00,31.1,27.1,30.28,South,187,0.0,0.0,85,0.00,,,0.00,0,WeatherHawk,2013-02-03 14:47:00,
2013-02-03 06:52:00,35.9,31.3,30.28,South,180,6.0,0.0,83,0.00,,,0.00,0,WeatherHawk,2013-02-03 14:52:00,
2013-02-03 06:57:00,32.1,24.5,30.28,SSE,164,1.0,0.0,73,0.00,,,0.00,0,WeatherHawk,2013-02-03 14:57:00,
2013-02-03 07:02:00,28.5,24.5,30.29,NW,320,0.0,0.0,85,0.00,,,0.00,0,WeatherHawk,2013-02-03 15:02:00,
2013-02-03 07:07:00,28.7,26.1,30.29,NW,320,0.0,0.0,90,0.00,,,0.00,0,WeatherHawk,2013-02-03 15:07:00,
2013-02-03 07:12:00,30.6,28.5,30.30,SSE,159,2.0,0.0,92,0.00,,,0.00,3,WeatherHawk,2013-02-03 15:12:00,
2013-02-03 07:17:00,30.1,24.7,30.30,NW,311,3.0,0.0,80,0.00,,,0.00,5,WeatherHawk,2013-02-03 15:17:00,
2013-02-03 07:23:00,28.6,24.4,30.30,NNW,329,0.0,0.0,84,0.00,,,0.00,7,WeatherHawk,2013-02-03 15:23:00,
2013-02-03 07:27:00,28.3,25.5,30.30,ESE,111,1.0,0.0,89,0.00,,,0.00,7,WeatherHawk,2013-02-03 15:27:00,
2013-02-03 07:33:00,31.7,29.9,30.30,SE,134,0.0,0.0,93,0.00,,,0.00,8,WeatherHawk,2013-02-03 15:33:00,
2013-02-03 07:39:00,30.3,27.2,30.30,NNE,12,0.0,0.0,88,0.00,,,0.00,10,WeatherHawk,2013-02-03 15:39:00,
2013-02-03 07:44:00,30.6,27.5,30.31,NNE,12,0.0,0.0,88,0.00,,,0.00,10,WeatherHawk,2013-02-03 15:44:00,
2013-02-03 07:49:00,29.1,26.0,30.31,NNW,333,1.0,0.0,88,0.00,,,0.00,13,WeatherHawk,2013-02-03 15:49:00,
2013-02-03 07:54:00,28.3,26.0,30.31,East,92,1.0,0.0,91,0.00,,,0.00,12,WeatherHawk,2013-02-03 15:54:00,
2013-02-03 07:59:00,30.4,28.6,30.30,ESE,102,0.0,0.0,93,0.00,,,0.00,14,WeatherHawk,2013-02-03 15:59:00,
2013-02-03 08:04:00,29.0,26.2,30.31,North,350,0.0,0.0,89,0.00,,,0.00,15,WeatherHawk,2013-02-03 16:04:00,
2013-02-03 08:09:00,29.3,26.7,30.31,South,183,0.0,0.0,90,0.00,,,0.00,16,WeatherHawk,2013-02-03 16:09:00,
2013-02-03 08:14:00,29.8,27.5,30.31,SW,215,0.0,-999.0,91,0.00,,,0.00,17,WeatherHawk,2013-02-03 16:14:00,
2013-02-03 08:19:00,30.2,25.4,30.31,West,265,0.0,0.0,82,0.00,,,0.00,17,WeatherHawk,2013-02-03 16:19:00,
2013-02-03 08:24:00,35.3,27.6,30.31,South,176,4.0,0.0,73,0.00,,,0.00,18,WeatherHawk,2013-02-03 16:24:00,
2013-02-03 08:29:00,29.0,18.4,30.31,SSW,212,0.0,0.0,64,0.00,,,0.00,19,WeatherHawk,2013-02-03 16:29:00,
2013-02-03 08:35:00,29.3,23.3,30.31,SW,215,0.0,0.0,78,0.00,,,0.00,20,WeatherHawk,2013-02-03 16:35:00,
2013-02-03 08:40:00,29.8,24.4,30.30,SSW,195,2.0,0.0,80,0.00,,,0.00,20,WeatherHawk,2013-02-03 16:40:00,
2013-02-03 08:45:00,32.6,24.9,30.30,SSE,148,2.0,0.0,73,0.00,,,0.00,19,WeatherHawk,2013-02-03 16:45:00,
2013-02-03 08:50:00,37.4,25.2,30.30,SE,139,13.0,0.0,61,0.00,,,0.00,21,WeatherHawk,2013-02-03 16:50:00,
2013-02-03 08:55:00,37.3,22.6,30.29,SSE,157,12.0,0.0,55,0.00,,,0.00,24,WeatherHawk,2013-02-03 16:55:00,
2013-02-03 09:00:00,37.0,21.5,30.29,SSE,160,7.0,0.0,53,0.00,,,0.00,87,WeatherHawk,2013-02-03 17:00:00,
2013-02-03 09:06:00,37.1,20.6,30.28,SSE,147,4.0,0.0,51,0.00,,,0.00,173,WeatherHawk,2013-02-03 17:06:00,
2013-02-03 09:11:00,35.2,17.5,30.29,West,277,5.0,0.0,48,0.00,,,0.00,199,WeatherHawk,2013-02-03 17:11:00,
2013-02-03 09:16:00,38.1,20.2,30.28,SSE,158,6.0,0.0,48,0.00,,,0.00,214,WeatherHawk,2013-02-03 17:16:00,
2013-02-03 09:22:00,38.9,19.4,30.27,SSE,149,15.0,0.0,45,0.00,,,0.00,221,WeatherHawk,2013-02-03 17:22:00,
2013-02-03 09:26:00,39.4,19.3,30.27,SSE,165,6.0,0.0,44,0.00,,,0.00,231,WeatherHawk,2013-02-03 17:26:00,
2013-02-03 09:32:00,41.4,21.1,30.27,SE,132,1.0,0.0,44,0.00,,,0.00,239,WeatherHawk,2013-02-03 17:32:00,
2013-02-03 09:36:00,39.8,18.0,30.26,South,176,11.0,0.0,41,0.00,,,0.00,249,WeatherHawk,2013-02-03 17:36:00,
2013-02-03 09:41:00,34.5,14.9,30.27,NE,38,3.0,0.0,44,0.00,,,0.00,258,WeatherHawk,2013-02-03 17:41:00,
2013-02-03 09:47:00,38.0,22.0,30.27,ESE,118,3.0,0.0,52,0.00,,,0.00,268,WeatherHawk,2013-02-03 17:47:00,
2013-02-03 09:52:00,41.4,19.5,30.27,SSW,197,10.0,0.0,41,0.00,,,0.00,276,WeatherHawk,2013-02-03 17:52:00,
2013-02-03 09:57:00,42.7,19.5,30.26,SSW,207,7.0,0.0,39,0.00,,,0.00,285,WeatherHawk,2013-02-03 17:57:00,
2013-02-03 10:03:00,46.5,21.0,30.25,SSW,199,1.0,0.0,36,0.00,,,0.00,293,WeatherHawk,2013-02-03 18:03:00,
2013-02-03 10:09:00,42.4,16.7,30.26,SSE,161,10.0,0.0,35,0.00,,,0.00,301,WeatherHawk,2013-02-03 18:09:00,
2013-02-03 10:14:00,42.6,17.5,30.26,South,191,9.0,0.0,36,0.00,,,0.00,310,WeatherHawk,2013-02-03 18:14:00,
2013-02-03 10:20:00,43.1,18.6,30.25,SSW,195,7.0,0.0,37,0.00,,,0.00,317,WeatherHawk,2013-02-03 18:20:00,
2013-02-03 10:26:00,43.0,17.2,30.25,SSE,160,9.0,0.0,35,0.00,,,0.00,327,WeatherHawk,2013-02-03 18:26:00,
2013-02-03 10:31:00,43.8,17.2,30.25,South,171,8.0,0.0,34,0.00,,,0.00,332,WeatherHawk,2013-02-03 18:31:00,
2013-02-03 10:37:00,44.1,16.8,30.25,South,177,11.0,0.0,33,0.00,,,0.00,340,WeatherHawk,2013-02-03 18:37:00,
2013-02-03 10:42:00,41.0,15.5,30.25,WSW,240,3.0,0.0,35,0.00,,,0.00,347,WeatherHawk,2013-02-03 18:42:00,
2013-02-03 10:48:00,44.3,17.7,30.25,SSW,202,3.0,0.0,34,0.00,,,0.00,352,WeatherHawk,2013-02-03 18:48:00,
2013-02-03 10:54:00,45.9,16.3,30.25,ESE,121,5.0,0.0,30,0.00,,,0.00,362,WeatherHawk,2013-02-03 18:54:00,
2013-02-03 10:59:00,47.4,17.5,30.25,SSE,164,10.0,0.0,30,0.00,,,0.00,369,WeatherHawk,2013-02-03 18:59:00,
2013-02-03 11:04:00,47.6,14.4,30.24,South,181,5.0,0.0,26,0.00,,,0.00,376,WeatherHawk,2013-02-03 19:04:00,
2013-02-03 11:09:00,47.6,14.4,30.24,SE,143,8.0,0.0,26,0.00,,,0.00,381,WeatherHawk,2013-02-03 19:09:00,
2013-02-03 11:14:00,48.8,18.0,30.24,SSW,209,5.0,0.0,29,0.00,,,0.00,378,WeatherHawk,2013-02-03 19:14:00,
2013-02-03 11:19:00,48.6,17.0,30.23,ESE,122,0.0,0.0,28,0.00,,,0.00,387,WeatherHawk,2013-02-03 19:19:00,
2013-02-03 11:25:00,50.8,18.0,30.24,SW,219,2.0,0.0,27,0.00,,,0.00,396,WeatherHawk,2013-02-03 19:25:00,
2013-02-03 11:30:00,49.7,17.1,30.23,NNE,27,0.0,0.0,27,0.00,,,0.00,403,WeatherHawk,2013-02-03 19:30:00,
2013-02-03 11:35:00,47.2,13.2,30.23,SE,136,7.0,0.0,25,0.00,,,0.00,405,WeatherHawk,2013-02-03 19:35:00,
2013-02-03 11:40:00,47.5,13.4,30.23,ESE,113,12.0,0.0,25,0.00,,,0.00,410,WeatherHawk,2013-02-03 19:40:00,
2013-02-03 11:45:00,48.5,13.4,30.22,ESE,123,8.0,-999.0,24,0.00,,,0.00,320,WeatherHawk,2013-02-03 19:45:00,
2013-02-03 11:51:00,51.3,13.8,30.22,SW,226,3.0,0.0,22,0.00,,,0.00,437,WeatherHawk,2013-02-03 19:51:00,
2013-02-03 11:56:00,51.7,12.0,30.22,SSW,196,6.0,0.0,20,0.00,,,0.00,437,WeatherHawk,2013-02-03 19:56:00,
2013-02-03 12:02:00,49.9,10.4,30.21,SSE,149,7.0,0.0,20,0.00,,,0.00,303,WeatherHawk,2013-02-03 20:02:00,
2013-02-03 12:07:00,53.4,11.0,30.22,WSW,256,6.0,0.0,18,0.00,,,0.00,509,WeatherHawk,2013-02-03 20:07:00,
2013-02-03 12:12:00,52.5,7.6,30.22,SSE,156,7.0,0.0,16,0.00,,,0.00,462,WeatherHawk,2013-02-03 20:12:00,
2013-02-03 12:17:00,52.7,9.1,30.21,West,279,2.0,0.0,17,0.00,,,0.00,370,WeatherHawk,2013-02-03 20:17:00,
2013-02-03 12:23:00,51.9,10.9,30.21,NNW,333,1.0,0.0,19,0.00,,,0.00,360,WeatherHawk,2013-02-03 20:23:00,
2013-02-03 12:28:00,50.2,9.5,30.21,WSW,253,2.0,0.0,19,0.00,,,0.00,331,WeatherHawk,2013-02-03 20:28:00,
2013-02-03 12:33:00,51.9,5.8,30.21,ENE,68,3.0,0.0,15,0.00,,,0.00,345,WeatherHawk,2013-02-03 20:33:00,
2013-02-03 12:38:00,54.8,9.5,30.21,SW,228,2.0,0.0,16,0.00,,,0.00,352,WeatherHawk,2013-02-03 20:38:00,
2013-02-03 12:44:00,52.7,4.8,30.20,SSE,164,6.0,0.0,14,0.00,,,0.00,303,WeatherHawk,2013-02-03 20:44:00,
2013-02-03 12:49:00,53.3,3.7,30.20,SSW,197,2.0,0.0,13,0.00,,,0.00,298,WeatherHawk,2013-02-03 20:49:00,
2013-02-03 12:54:00,50.6,12.1,30.20,NNE,23,4.0,0.0,21,0.00,,,0.00,268,WeatherHawk,2013-02-03 20:54:00,
2013-02-03 12:59:00,49.1,13.9,30.20,SSE,164,4.0,0.0,24,0.00,,,0.00,239,WeatherHawk,2013-02-03 20:59:00,
2013-02-03 13:05:00,52.7,7.8,30.19,SE,124,0.0,0.0,16,0.00,,,0.00,225,WeatherHawk,2013-02-03 21:05:00,
2013-02-03 13:10:00,51.0,13.5,30.19,WSW,252,0.0,0.0,22,0.00,,,0.00,334,WeatherHawk,2013-02-03 21:10:00,
2013-02-03 13:16:00,48.7,14.5,30.19,WSW,247,2.0,0.0,25,0.00,,,0.00,402,WeatherHawk,2013-02-03 21:16:00,
2013-02-03 13:21:00,52.7,15.0,30.19,SW,216,0.0,0.0,22,0.00,,,0.00,412,WeatherHawk,2013-02-03 21:21:00,
2013-02-03 13:27:00,52.8,16.0,30.18,SW,226,0.0,0.0,23,0.00,,,0.00,418,WeatherHawk,2013-02-03 21:27:00,
2013-02-03 13:32:00,54.4,7.7,30.18,SE,128,4.0,0.0,15,0.00,,,0.00,347,WeatherHawk,2013-02-03 21:32:00,
2013-02-03 13:38:00,51.5,13.9,30.18,ENE,68,1.0,0.0,22,0.00,,,0.00,250,WeatherHawk,2013-02-03 21:38:00,
2013-02-03 13:43:00,50.9,12.3,30.18,WNW,287,6.0,0.0,21,0.00,,,0.00,262,WeatherHawk,2013-02-03 21:43:00,
2013-02-03 13:49:00,52.1,13.3,30.18,WSW,241,0.0,0.0,21,0.00,,,0.00,285,WeatherHawk,2013-02-03 21:49:00,
2013-02-03 13:54:00,51.0,11.4,30.18,NE,34,4.0,0.0,20,0.00,,,0.00,254,WeatherHawk,2013-02-03 21:54:00,
2013-02-03 13:59:00,53.8,14.8,30.18,East,98,3.0,0.0,21,0.00,,,0.00,229,WeatherHawk,2013-02-03 21:59:00,
2013-02-03 14:04:00,51.4,14.9,30.18,NNE,31,2.0,0.0,23,0.00,,,0.00,205,WeatherHawk,2013-02-03 22:04:00,
2013-02-03 14:09:00,54.6,16.6,30.17,SSW,203,0.0,0.0,22,0.00,,,0.00,201,WeatherHawk,2013-02-03 22:09:00,
2013-02-03 14:14:00,50.5,16.9,30.18,SSW,198,0.0,0.0,26,0.00,,,0.00,205,WeatherHawk,2013-02-03 22:14:00,
2013-02-03 14:19:00,51.8,16.2,30.18,East,93,4.0,0.0,24,0.00,,,0.00,173,WeatherHawk,2013-02-03 22:19:00,
2013-02-03 14:25:00,53.1,15.3,30.17,ENE,72,5.0,0.0,22,0.00,,,0.00,154,WeatherHawk,2013-02-03 22:25:00,
2013-02-03 14:30:00,54.0,12.7,30.17,ESE,109,3.0,0.0,19,0.00,,,0.00,152,WeatherHawk,2013-02-03 22:30:00,
2013-02-03 14:35:00,52.5,14.7,30.17,ESE,108,0.0,0.0,22,0.00,,,0.00,149,WeatherHawk,2013-02-03 22:35:00,
2013-02-03 14:40:00,52.3,15.7,30.18,SW,235,2.0,0.0,23,0.00,,,0.00,143,WeatherHawk,2013-02-03 22:40:00,
2013-02-03 14:46:00,52.9,15.1,30.18,East,83,2.0,0.0,22,0.00,,,0.00,137,WeatherHawk,2013-02-03 22:46:00,
2013-02-03 14:51:00,53.5,14.5,30.17,East,98,2.0,0.0,21,0.00,,,0.00,129,WeatherHawk,2013-02-03 22:51:00,
2013-02-03 14:57:00,51.2,15.7,30.18,West,278,3.0,0.0,24,0.00,,,0.00,115,WeatherHawk,2013-02-03 22:57:00,
2013-02-03 15:02:00,50.7,18.8,30.17,NE,42,5.0,0.0,28,0.00,,,0.00,106,WeatherHawk,2013-02-03 23:02:00,
2013-02-03 15:08:00,50.7,20.4,30.17,ESE,110,8.0,0.0,30,0.00,,,0.00,102,WeatherHawk,2013-02-03 23:08:00,
2013-02-03 15:13:00,50.7,21.2,30.18,ENE,66,3.0,0.0,31,0.00,,,0.00,93,WeatherHawk,2013-02-03 23:13:00,
2013-02-03 15:18:00,50.2,20.7,30.18,East,89,4.0,0.0,31,0.00,,,0.00,88,WeatherHawk,2013-02-03 23:18:00,
2013-02-03 15:23:00,50.7,21.9,30.18,SE,145,3.0,0.0,32,0.00,,,0.00,82,WeatherHawk,2013-02-03 23:23:00,
2013-02-03 15:28:00,50.3,20.8,30.18,ENE,77,4.0,0.0,31,0.00,,,0.00,74,WeatherHawk,2013-02-03 23:28:00,
2013-02-03 15:34:00,50.2,22.2,30.18,SSW,193,0.0,0.0,33,0.00,,,0.00,66,WeatherHawk,2013-02-03 23:34:00,
2013-02-03 15:40:00,50.7,20.4,30.18,ENE,61,5.0,0.0,30,0.00,,,0.00,55,WeatherHawk,2013-02-03 23:40:00,
2013-02-03 15:46:00,49.4,22.3,30.18,SSW,197,0.0,0.0,34,0.00,,,0.00,49,WeatherHawk,2013-02-03 23:46:00,
2013-02-03 15:51:00,48.9,22.4,30.18,NE,53,4.0,0.0,35,0.00,,,0.00,47,WeatherHawk,2013-02-03 23:51:00,
2013-02-03 15:56:00,48.8,23.1,30.18,ESE,120,3.0,0.0,36,0.00,,,0.00,39,WeatherHawk,2013-02-03 23:56:00,
2013-02-03 16:01:00,48.5,23.4,30.18,SE,136,0.0,0.0,37,0.00,,,0.00,33,WeatherHawk,2013-02-04 00:01:00,
2013-02-03 16:07:00,48.4,22.7,30.18,WSW,249,0.0,0.0,36,0.00,,,0.00,31,WeatherHawk,2013-02-04 00:07:00,
2013-02-03 16:12:00,48.7,22.3,30.18,SSW,205,0.0,0.0,35,0.00,,,0.00,29,WeatherHawk,2013-02-04 00:12:00,
2013-02-03 16:17:00,48.8,22.4,30.18,East,81,5.0,0.0,35,0.00,,,0.00,26,WeatherHawk,2013-02-04 00:17:00,
2013-02-03 16:22:00,50.0,17.3,30.18,East,95,4.0,0.0,27,0.00,,,0.00,23,WeatherHawk,2013-02-04 00:22:00,
2013-02-03 16:27:00,49.0,18.9,30.18,East,81,5.0,0.0,30,0.00,,,0.00,20,WeatherHawk,2013-02-04 00:27:00,
2013-02-03 16:32:00,48.5,20.0,30.18,SSW,197,4.0,0.0,32,0.00,,,0.00,17,WeatherHawk,2013-02-04 00:32:00,
2013-02-03 16:37:00,49.7,17.9,30.18,ENE,63,3.0,0.0,28,0.00,,,0.00,18,WeatherHawk,2013-02-04 00:37:00,
2013-02-03 16:42:00,49.3,19.2,30.18,East,85,6.0,0.0,30,0.00,,,0.00,15,WeatherHawk,2013-02-04 00:42:00,
2013-02-03 16:48:00,51.1,15.6,30.18,ENE,74,4.0,0.0,24,0.00,,,0.00,9,WeatherHawk,2013-02-04 00:48:00,
2013-02-03 16:53:00,49.9,14.5,30.18,SE,129,4.0,0.0,24,0.00,,,0.00,6,WeatherHawk,2013-02-04 00:53:00,
2013-02-03 16:59:00,47.3,14.2,30.18,SSE,159,2.0,0.0,26,0.00,,,0.00,5,WeatherHawk,2013-02-04 00:59:00,
2013-02-03 17:04:00,49.5,17.8,30.18,East,86,6.0,0.0,28,0.00,,,0.00,5,WeatherHawk,2013-02-04 01:04:00,
2013-02-03 17:10:00,48.0,17.2,30.18,West,271,4.0,0.0,29,0.00,,,0.00,3,WeatherHawk,2013-02-04 01:10:00,
2013-02-03 17:15:00,51.6,6.9,30.18,SSE,147,3.0,0.0,16,0.00,,,0.00,0,WeatherHawk,2013-02-04 01:15:00,
2013-02-03 17:21:00,48.5,14.3,30.18,SSW,213,2.0,0.0,25,0.00,,,0.00,0,WeatherHawk,2013-02-04 01:21:00,
2013-02-03 17:26:00,47.3,18.2,30.18,North,1,5.0,0.0,31,0.00,,,0.00,0,WeatherHawk,2013-02-04 01:26:00,
2013-02-03 17:31:00,46.9,18.6,30.19,North,5,0.0,0.0,32,0.00,,,0.00,1,WeatherHawk,2013-02-04 01:31:00,
2013-02-03 17:36:00,47.9,20.2,30.18,ENE,60,0.0,0.0,33,0.00,,,0.00,0,WeatherHawk,2013-02-04 01:36:00,
2013-02-03 17:41:00,46.0,19.3,30.19,West,273,0.0,0.0,34,0.00,,,0.00,0,WeatherHawk,2013-02-04 01:41:00,
2013-02-03 17:46:00,48.4,21.3,30.19,NE,49,3.0,0.0,34,0.00,,,0.00,0,WeatherHawk,2013-02-04 01:46:00,
2013-02-03 17:52:00,47.1,17.3,30.19,SW,226,3.0,0.0,30,0.00,,,0.00,0,WeatherHawk,2013-02-04 01:52:00,
2013-02-03 17:57:00,47.8,20.8,30.18,NNE,12,1.0,0.0,34,0.00,,,0.00,1,WeatherHawk,2013-02-04 01:57:00,
2013-02-03 18:02:00,46.3,20.2,30.19,SSE,153,3.0,0.0,35,0.00,,,0.00,0,WeatherHawk,2013-02-04 02:02:00,
2013-02-03 18:07:00,47.7,20.0,30.19,ESE,102,1.0,0.0,33,0.00,,,0.00,1,WeatherHawk,2013-02-04 02:07:00,
2013-02-03 18:13:00,49.2,18.3,30.18,ENE,73,4.0,0.0,29,0.00,,,0.00,0,WeatherHawk,2013-02-04 02:13:00,
2013-02-03 18:19:00,48.4,16.8,30.19,ESE,123,6.0,0.0,28,0.00,,,0.00,0,WeatherHawk,2013-02-04 02:19:00,
2013-02-03 18:24:00,49.6,10.2,30.18,South,189,0.0,0.0,20,0.00,,,0.00,0,WeatherHawk,2013-02-04 02:24:00,
2013-02-03 18:29:00,49.4,11.1,30.18,ESE,102,0.0,0.0,21,0.00,,,0.00,0,WeatherHawk,2013-02-04 02:29:00,
2013-02-03 18:34:00,49.4,14.2,30.18,NE,41,5.0,0.0,24,0.00,,,0.00,0,WeatherHawk,2013-02-04 02:34:00,
2013-02-03 18:39:00,51.0,7.7,30.18,SW,217,5.0,0.0,17,0.00,,,0.00,1,WeatherHawk,2013-02-04 02:39:00,
2013-02-03 18:45:00,50.1,11.7,30.18,ESE,106,0.0,0.0,21,0.00,,,0.00,0,WeatherHawk,2013-02-04 02:45:00,
2013-02-03 18:50:00,49.2,8.7,30.18,ESE,118,2.0,-999.0,19,0.00,,,0.00,0,WeatherHawk,2013-02-04 02:50:00,
2013-02-03 18:55:00,49.4,7.7,30.18,SE,124,0.0,0.0,18,0.00,,,0.00,0,WeatherHawk,2013-02-04 02:55:00,
2013-02-03 19:00:00,50.3,7.2,30.18,North,7,0.0,0.0,17,0.00,,,0.00,0,WeatherHawk,2013-02-04 03:00:00,
2013-02-03 19:05:00,48.4,8.0,30.18,WSW,246,0.0,0.0,19,0.00,,,0.00,0,WeatherHawk,2013-02-04 03:05:00,
2013-02-03 19:11:00,50.6,-2.0,30.18,SW,216,4.0,0.0,11,0.00,,,0.00,0,WeatherHawk,2013-02-04 03:11:00,
2013-02-03 19:17:00,50.4,1.4,30.18,North,349,5.0,0.0,13,0.00,,,0.00,0,WeatherHawk,2013-02-04 03:17:00,
2013-02-03 19:22:00,50.5,1.5,30.18,NNE,17,3.0,0.0,13,0.00,,,0.00,0,WeatherHawk,2013-02-04 03:22:00,
2013-02-03 19:27:00,49.9,1.0,30.18,SSW,212,1.0,0.0,13,0.00,,,0.00,0,WeatherHawk,2013-02-04 03:27:00,
2013-02-03 19:33:00,48.8,3.2,30.18,NNW,331,1.0,0.0,15,0.00,,,0.00,0,WeatherHawk,2013-02-04 03:33:00,
2013-02-03 19:38:00,49.2,8.7,30.18,NE,42,2.0,0.0,19,0.00,,,0.00,1,WeatherHawk,2013-02-04 03:38:00,
2013-02-03 19:43:00,49.5,6.5,30.18,NE,44,4.0,0.0,17,0.00,,,0.00,0,WeatherHawk,2013-02-04 03:43:00,
2013-02-03 19:49:00,50.1,4.3,30.18,NNE,31,0.0,0.0,15,0.00,,,0.00,1,WeatherHawk,2013-02-04 03:49:00,
2013-02-03 19:54:00,49.7,-0.8,30.18,North,349,0.0,0.0,12,0.00,,,0.00,0,WeatherHawk,2013-02-04 03:54:00,
2013-02-03 19:59:00,49.7,4.0,30.18,NW,324,0.0,0.0,15,0.00,,,0.00,0,WeatherHawk,2013-02-04 03:59:00,
2013-02-03 20:04:00,49.7,4.0,30.18,NW,324,2.0,0.0,15,0.00,,,0.00,0,WeatherHawk,2013-02-04 04:04:00,
2013-02-03 20:09:00,49.8,-0.7,30.18,SSW,202,0.0,0.0,12,0.00,,,0.00,0,WeatherHawk,2013-02-04 04:09:00,
2013-02-03 20:14:00,49.4,0.6,30.18,SW,215,0.0,0.0,13,0.00,,,0.00,0,WeatherHawk,2013-02-04 04:14:00,
2013-02-03 20:19:00,50.1,-0.5,30.18,NNE,31,0.0,0.0,12,0.00,,,0.00,0,WeatherHawk,2013-02-04 04:19:00,
2013-02-03 20:24:00,50.2,2.9,30.18,NE,38,0.0,0.0,14,0.00,,,0.00,0,WeatherHawk,2013-02-04 04:24:00,
2013-02-03 20:29:00,50.7,1.6,30.19,ESE,107,4.0,0.0,13,0.00,,,0.00,0,WeatherHawk,2013-02-04 04:29:00,
2013-02-03 20:34:00,47.4,6.0,30.19,ESE,102,6.0,0.0,18,0.00,,,0.00,1,WeatherHawk,2013-02-04 04:34:00,
2013-02-03 20:39:00,49.2,6.3,30.19,ESE,102,3.0,0.0,17,0.00,,,0.00,0,WeatherHawk,2013-02-04 04:39:00,
2013-02-03 20:44:00,50.0,1.1,30.19,East,94,4.0,0.0,13,0.00,,,0.00,0,WeatherHawk,2013-02-04 04:44:00,
2013-02-03 20:49:00,48.1,2.7,30.19,ESE,113,6.0,0.0,15,0.00,,,0.00,0,WeatherHawk,2013-02-04 04:49:00,
2013-02-03 20:54:00,49.4,5.1,30.18,ESE,110,6.0,0.0,16,0.00,,,0.00,0,WeatherHawk,2013-02-04 04:54:00,
2013-02-03 20:59:00,50.9,-3.7,30.19,ESE,107,4.0,0.0,10,0.00,,,0.00,0,WeatherHawk,2013-02-04 04:59:00,
2013-02-03 21:01:00,50.9,-1.7,30.18,ESE,119,4.0,0.0,11,0.00,,,0.00,0,WeatherHawk,2013-02-04 05:01:00,
2013-02-03 21:02:00,50.9,-5.9,30.19,SE,127,4.0,0.0,9,0.00,,,0.00,0,WeatherHawk,2013-02-04 05:02:00,
2013-02-03 21:03:00,50.9,-5.9,30.19,SE,127,4.0,0.0,9,0.00,,,0.00,0,WeatherHawk,2013-02-04 05:03:00,
2013-02-03 21:04:00,49.3,-7.1,30.18,SE,127,0.0,0.0,9,0.00,,,0.00,0,WeatherHawk,2013-02-04 05:04:00,
2013-02-03 21:09:00,50.5,-6.2,30.19,SE,146,2.0,0.0,9,0.00,,,0.00,1,WeatherHawk,2013-02-04 05:09:00,
2013-02-03 21:14:00,49.8,2.6,30.19,SE,146,3.0,0.0,14,0.00,,,0.00,0,WeatherHawk,2013-02-04 05:14:00,
2013-02-03 21:19:00,50.5,1.5,30.18,SSE,162,5.0,0.0,13,0.00,,,0.00,0,WeatherHawk,2013-02-04 05:19:00,
2013-02-03 21:24:00,48.4,1.4,30.19,South,176,3.0,0.0,14,0.00,,,0.00,0,WeatherHawk,2013-02-04 05:24:00,
2013-02-03 21:29:00,49.9,2.6,30.19,SSE,158,4.0,-999.0,14,0.00,,,0.00,0,WeatherHawk,2013-02-04 05:29:00,
2013-02-03 21:34:00,50.0,1.1,30.18,South,172,3.0,0.0,13,0.00,,,0.00,0,WeatherHawk,2013-02-04 05:34:00,
2013-02-03 21:39:00,50.6,3.2,30.19,SSE,165,6.0,0.0,14,0.00,,,0.00,0,WeatherHawk,2013-02-04 05:39:00,
2013-02-03 21:44:00,49.2,-3.0,30.19,South,191,2.0,0.0,11,0.00,,,0.00,0,WeatherHawk,2013-02-04 05:44:00,
2013-02-03 21:49:00,50.3,1.3,30.18,SSW,199,5.0,0.0,13,0.00,,,0.00,0,WeatherHawk,2013-02-04 05:49:00,
2013-02-03 21:54:00,50.7,0.0,30.18,WSW,237,6.0,0.0,12,0.00,,,0.00,0,WeatherHawk,2013-02-04 05:54:00,
2013-02-03 21:59:00,50.4,1.5,30.18,SSW,201,5.0,0.0,13,0.00,,,0.00,0,WeatherHawk,2013-02-04 05:59:00,
2013-02-03 22:05:00,50.5,-0.2,30.18,SSW,207,5.0,0.0,12,0.00,,,0.00,0,WeatherHawk,2013-02-04 06:05:00,
2013-02-03 22:10:00,47.2,8.2,30.18,WSW,244,0.0,0.0,20,0.00,,,0.00,0,WeatherHawk,2013-02-04 06:10:00,
2013-02-03 22:16:00,47.2,2.0,30.18,South,169,2.0,0.0,15,0.00,,,0.00,0,WeatherHawk,2013-02-04 06:16:00,
2013-02-03 22:22:00,47.9,5.2,30.18,West,275,0.0,0.0,17,0.00,,,0.00,0,WeatherHawk,2013-02-04 06:22:00,
2013-02-03 22:28:00,48.2,4.1,30.18,SSW,206,3.0,0.0,16,0.00,,,0.00,0,WeatherHawk,2013-02-04 06:28:00,
2013-02-03 22:32:00,48.6,5.8,30.18,SSE,166,3.0,0.0,17,0.00,,,0.00,0,WeatherHawk,2013-02-04 06:32:00,
2013-02-03 22:38:00,48.1,1.2,30.18,WSW,244,1.0,0.0,14,0.00,,,0.00,0,WeatherHawk,2013-02-04 06:38:00,
2013-02-03 22:43:00,49.8,4.0,30.17,South,186,5.0,0.0,15,0.00,,,0.00,1,WeatherHawk,2013-02-04 06:43:00,
2013-02-03 22:49:00,49.3,2.1,30.17,South,175,3.0,0.0,14,0.00,,,0.00,0,WeatherHawk,2013-02-04 06:49:00,
2013-02-03 22:55:00,50.1,2.8,30.17,SSW,192,6.0,0.0,14,0.00,,,0.00,0,WeatherHawk,2013-02-04 06:55:00,
2013-02-03 23:00:00,50.0,-2.4,30.17,SSW,201,6.0,0.0,11,0.00,,,0.00,0,WeatherHawk,2013-02-04 07:00:00,
2013-02-03 23:05:00,48.9,-3.3,30.18,South,183,4.0,0.0,11,0.00,,,0.00,1,WeatherHawk,2013-02-04 07:05:00,
2013-02-03 23:10:00,49.2,3.5,30.17,ENE,78,0.0,0.0,15,0.00,,,0.00,1,WeatherHawk,2013-02-04 07:10:00,
2013-02-03 23:15:00,49.4,2.2,30.17,SSW,195,3.0,0.0,14,0.00,,,0.00,0,WeatherHawk,2013-02-04 07:15:00,
2013-02-03 23:21:00,50.7,-1.8,30.18,South,173,6.0,0.0,11,0.00,,,0.00,0,WeatherHawk,2013-02-04 07:21:00,
2013-02-03 23:26:00,47.2,-1.1,30.18,SW,214,0.0,0.0,13,0.00,,,0.00,0,WeatherHawk,2013-02-04 07:26:00,
2013-02-03 23:31:00,48.6,4.5,30.18,South,175,5.0,0.0,16,0.00,,,0.00,0,WeatherHawk,2013-02-04 07:31:00,
2013-02-03 23:36:00,49.2,-1.2,30.17,South,178,5.0,0.0,12,0.00,,,0.00,0,WeatherHawk,2013-02-04 07:36:00,
2013-02-03 23:41:00,48.6,3.1,30.17,South,178,5.0,0.0,15,0.00,,,0.00,0,WeatherHawk,2013-02-04 07:41:00,
2013-02-03 23:46:00,49.7,-2.6,30.18,SSW,196,3.0,0.0,11,0.00,,,0.00,0,WeatherHawk,2013-02-04 07:46:00,
2013-02-03 23:52:00,45.8,9.2,30.18,NW,320,0.0,0.0,22,0.00,,,0.00,0,WeatherHawk,2013-02-04 07:52:00,
2013-02-03 23:57:00,47.3,7.1,30.18,North,351,0.0,0.0,19,0.00,,,0.00,0,WeatherHawk,2013-02-04 07:57:00,